KVAD/VAD METAR and TAF weather

Enter ICAO airport designator
Station Type Date Time Source
KVAD METAR 2018/12/15 19:56 UTC NOAA

KVAD 151956Z AUTO 23011KT 10SM SCT036 19/13 A2995 RMK AO2 SLP144 T01860126 $


Station Type Date Time Source
KVAD Decoded METAR 2018/12/15 19:56 UTC NOAA

Moody Air Force Base, GA, United States (KVAD) 30-58N 083-12W 71M
Dec 15, 2018 - 02:56 PM EST / 2018.12.15 1956 UTC
Wind: from the SW (230 degrees) at 13 MPH (11 KT):0
Visibility: 10 mile(s):0
Sky conditions: partly cloudy
Temperature: 65.5 F (18.6 C)
Dew Point: 54.7 F (12.6 C)
Relative Humidity: 68%
Pressure (altimeter): 29.95 in. Hg (1014 hPa)
ob: KVAD 151956Z AUTO 23011KT 10SM SCT036 19/13 A2995 RMK AO2 SLP144 T01860126
cycle: 20

Station Type Date Time Source
KVAD TAF 2018/12/14 19:58 UTC NOAA

TAF
AMD KVAD 141945Z 1419/1523 18012KT 8000 -SHRA BKN007 OVC050 550109 QNH2980INS
TEMPO 1419/1421 18015G25KT 4800 TSRA OVC005CB
BECMG 1423/1424 18009KT 8000 -SHRA OVC012 510014 QNH2984INS
BECMG 1508/1509 19009KT 3200 BR OVC002 QNH2990INS
BECMG 1514/1515 22012G18KT 9999 NSW SCT012 BKN030 QNH2996INS TX20/1420Z TN13/1505Z LAST NO
AMDS AFT 1422 NEXT 1709


Example: see airport list